createdAt,value
2023-04-16T13:29:23.870Z,11.15
2023-04-16T13:31:50.835Z,11.26
2023-04-16T13:34:17.945Z,11.31
2023-04-16T13:36:48.473Z,11.24
2023-04-16T13:39:16.006Z,11.39
2023-04-16T13:41:42.793Z,11.35
2023-04-16T13:44:09.634Z,11.39
2023-04-16T13:46:36.513Z,11.42
2023-04-16T13:49:04.226Z,11.35
2023-04-16T13:51:32.296Z,11.29
2023-04-16T13:53:59.217Z,11.27
2023-04-16T13:56:26.128Z,11.25
2023-04-16T13:58:53.076Z,11.26
2023-04-16T14:01:20.165Z,11.20
2023-04-16T14:03:47.099Z,11.20
2023-04-16T14:06:15.226Z,11.23
2023-04-16T14:08:42.143Z,11.47
2023-04-16T14:11:09.433Z,11.54
2023-04-16T14:13:36.939Z,11.69
2023-04-16T14:16:04.154Z,11.68
2023-04-16T14:18:31.028Z,11.75
2023-04-16T14:20:58.802Z,11.77
2023-04-16T14:23:26.789Z,11.78
2023-04-16T14:25:54.005Z,11.93
2023-04-16T14:28:21.082Z,11.99
2023-04-16T14:30:47.979Z,12.04
2023-04-16T14:33:14.846Z,12.14
2023-04-16T14:35:41.804Z,12.15
2023-04-16T14:38:08.891Z,11.99
2023-04-16T14:40:36.010Z,11.83
2023-04-16T14:43:02.905Z,11.75
2023-04-16T14:45:31.033Z,11.70
2023-04-16T14:47:58.042Z,11.60
2023-04-16T14:50:25.166Z,11.60
2023-04-16T14:52:53.894Z,11.53
2023-04-16T14:55:21.533Z,11.62
2023-04-16T14:57:48.357Z,11.69
2023-04-16T15:00:17.740Z,11.86
2023-04-16T15:02:46.324Z,11.96
2023-04-16T15:05:13.244Z,11.89
2023-04-16T15:07:40.158Z,11.80
2023-04-16T15:10:09.277Z,11.85
2023-04-16T15:12:36.153Z,12.02
2023-04-16T15:15:03.087Z,12.13
2023-04-16T15:17:29.984Z,12.25
2023-04-16T15:19:56.954Z,12.40
2023-04-16T15:22:23.923Z,12.49
2023-04-16T15:24:51.031Z,12.34
2023-04-16T15:27:18.225Z,12.34
2023-04-16T15:29:49.663Z,12.24
2023-04-16T15:32:16.812Z,12.26
2023-04-16T15:34:43.718Z,12.11
2023-04-16T15:37:10.932Z,12.07
2023-04-16T15:39:37.809Z,12.09
2023-04-16T15:42:07.402Z,11.93
2023-04-16T15:44:34.962Z,11.82
2023-04-16T15:47:01.854Z,11.76
2023-04-16T15:49:28.805Z,11.69
2023-04-16T15:51:56.220Z,11.71
2023-04-16T15:54:23.565Z,11.71
2023-04-16T15:56:51.445Z,11.63
2023-04-16T15:59:18.331Z,11.66
2023-04-16T16:01:45.130Z,11.68
2023-04-16T16:04:12.000Z,11.67
2023-04-16T16:06:38.980Z,11.65
2023-04-16T16:09:06.659Z,11.64
2023-04-16T16:11:33.684Z,11.68
2023-04-16T16:14:03.729Z,11.70
2023-04-16T16:16:31.053Z,11.75
2023-04-16T16:18:57.957Z,11.67
2023-04-16T16:21:24.755Z,11.63
2023-04-16T16:23:51.843Z,11.57
2023-04-16T16:26:18.824Z,11.49
2023-04-16T16:28:46.126Z,11.45
2023-04-16T16:31:12.994Z,11.47
2023-04-16T16:33:40.532Z,11.32
2023-04-16T16:36:10.941Z,11.28
2023-04-16T16:38:38.269Z,11.27
2023-04-16T16:41:05.095Z,11.23
2023-04-16T16:43:31.920Z,11.16
2023-04-16T16:45:58.695Z,11.06
2023-04-16T16:48:25.761Z,10.98
2023-04-16T16:50:52.570Z,10.92
2023-04-16T16:53:19.426Z,10.81
2023-04-16T16:55:46.479Z,10.69
2023-04-16T16:58:13.291Z,10.61
2023-04-16T17:00:40.468Z,10.63
2023-04-16T17:03:09.164Z,10.61
2023-04-16T17:05:36.862Z,10.56
2023-04-16T17:08:03.905Z,10.56
2023-04-16T17:10:30.781Z,10.52
2023-04-16T17:12:57.660Z,10.48
2023-04-16T17:15:24.730Z,10.38
2023-04-16T17:17:51.870Z,10.30
2023-04-16T17:20:20.051Z,10.26
2023-04-16T17:22:47.032Z,10.18
2023-04-16T17:25:13.997Z,10.13
2023-04-16T17:27:40.956Z,10.07
2023-04-16T17:30:08.431Z,9.97
2023-04-16T17:32:35.354Z,9.92
2023-04-16T17:35:04.501Z,9.90
2023-04-16T17:37:31.589Z,9.90
2023-04-16T17:39:58.458Z,9.89
2023-04-16T17:42:25.644Z,9.83
2023-04-16T17:44:52.614Z,9.77
2023-04-16T17:47:19.551Z,9.74
2023-04-16T17:49:46.481Z,9.72
2023-04-16T17:52:13.351Z,9.67
2023-04-16T17:54:40.189Z,9.61
2023-04-16T17:57:06.945Z,9.57
2023-04-16T17:59:33.691Z,9.57
2023-04-16T18:02:00.895Z,9.54
2023-04-16T18:04:28.085Z,9.51
2023-04-16T18:06:55.160Z,9.50
2023-04-16T18:09:22.047Z,9.45
2023-04-16T18:11:49.016Z,9.47
2023-04-16T18:14:20.030Z,9.46
2023-04-16T18:16:49.883Z,9.41
2023-04-16T18:19:16.999Z,9.42
2023-04-16T18:21:44.256Z,9.37
2023-04-16T18:24:11.388Z,9.32
2023-04-16T18:26:40.755Z,9.30
2023-04-16T18:29:08.195Z,9.30
2023-04-16T18:31:36.013Z,9.31
2023-04-16T18:34:03.048Z,9.28
2023-04-16T18:36:29.979Z,9.27
2023-04-16T18:39:15.895Z,9.26
2023-04-16T18:41:43.757Z,9.23
2023-04-16T18:44:13.353Z,9.20
2023-04-16T18:46:40.283Z,9.15
2023-04-16T18:49:07.214Z,9.14
2023-04-16T18:51:34.037Z,9.11
2023-04-16T18:54:00.952Z,9.09
2023-04-16T18:56:29.927Z,9.06
2023-04-16T18:58:56.707Z,9.08
2023-04-16T19:01:23.672Z,9.06
2023-04-16T19:03:50.798Z,9.03
2023-04-16T19:06:17.702Z,9.03
2023-04-16T19:08:44.507Z,9.02
2023-04-16T19:11:11.356Z,8.99
2023-04-16T19:13:39.372Z,8.96
2023-04-16T19:16:11.434Z,8.93
2023-04-16T19:18:38.976Z,8.90
2023-04-16T19:21:07.102Z,8.90
2023-04-16T19:23:34.038Z,8.90
2023-04-16T19:26:01.659Z,8.89
2023-04-16T19:28:28.799Z,8.83
2023-04-16T19:30:56.173Z,8.79
2023-04-16T19:33:23.107Z,8.77
2023-04-16T19:35:50.030Z,8.74
2023-04-16T19:38:16.858Z,8.76
2023-04-16T19:40:45.580Z,8.71
2023-04-16T19:43:12.826Z,8.68
2023-04-16T19:45:53.692Z,8.65
2023-04-16T19:48:21.615Z,8.64
2023-04-16T19:50:48.701Z,8.64
2023-04-16T19:53:17.339Z,8.59
2023-04-16T19:55:44.293Z,8.58
2023-04-16T19:58:11.186Z,8.56
2023-04-16T20:00:40.972Z,8.55
2023-04-16T20:03:07.907Z,8.53
2023-04-16T20:05:34.932Z,8.53
2023-04-16T20:08:01.758Z,8.52
2023-04-16T20:10:29.398Z,8.54
2023-04-16T20:12:56.551Z,8.55
2023-04-16T20:15:23.398Z,8.55
2023-04-16T20:17:50.259Z,8.54
2023-04-16T20:20:17.217Z,8.53
2023-04-16T20:22:44.053Z,8.52
2023-04-16T20:25:11.659Z,8.48
2023-04-16T20:27:38.618Z,8.49
2023-04-16T20:30:06.495Z,8.48
2023-04-16T20:32:33.525Z,8.48
2023-04-16T20:35:00.408Z,8.50
2023-04-16T20:37:29.246Z,8.47
2023-04-16T20:39:56.482Z,8.49
2023-04-16T20:42:26.519Z,8.47
2023-04-16T20:44:56.735Z,8.49
2023-04-16T20:47:23.977Z,8.50
2023-04-16T20:49:52.995Z,8.48
2023-04-16T20:52:20.043Z,8.46
2023-04-16T20:54:47.870Z,8.44
2023-04-16T20:57:14.832Z,8.39
2023-04-16T20:59:41.785Z,8.36
2023-04-16T21:02:08.784Z,8.35
2023-04-16T21:04:36.120Z,8.37
2023-04-16T21:07:04.357Z,8.37
2023-04-16T21:09:31.735Z,8.37
2023-04-16T21:11:58.599Z,8.37
2023-04-16T21:14:25.424Z,8.36
2023-04-16T21:16:52.256Z,8.34
2023-04-16T21:19:19.082Z,8.34
2023-04-16T21:21:45.996Z,8.33
2023-04-16T21:24:12.862Z,8.32
2023-04-16T21:26:39.639Z,8.28
2023-04-16T21:29:06.465Z,8.25
2023-04-16T21:31:33.282Z,8.23
2023-04-16T21:34:00.112Z,8.19
2023-04-16T21:36:27.846Z,8.21
2023-04-16T21:38:55.046Z,8.22
2023-04-16T21:41:21.880Z,8.19
2023-04-16T21:43:48.716Z,8.19
2023-04-16T21:46:15.548Z,8.20
2023-04-16T21:48:42.322Z,8.18
2023-04-16T21:51:10.216Z,8.17
2023-04-16T21:53:39.176Z,8.18
2023-04-16T21:56:06.798Z,8.14
2023-04-16T21:58:33.534Z,8.14
2023-04-16T22:01:00.371Z,8.12
2023-04-16T22:03:28.221Z,8.10
2023-04-16T22:06:01.136Z,8.06
2023-04-16T22:08:29.580Z,8.03
2023-04-16T22:11:01.706Z,8.04
2023-04-16T22:13:32.572Z,8.03
2023-04-16T22:16:02.981Z,8.02
2023-04-16T22:18:33.167Z,7.97
2023-04-16T22:21:00.209Z,7.99
2023-04-16T22:23:27.206Z,7.99
2023-04-16T22:25:55.619Z,7.98
2023-04-16T22:28:22.905Z,7.99
2023-04-16T22:30:50.249Z,7.99
2023-04-16T22:33:17.120Z,7.95
2023-04-16T22:35:43.988Z,7.91
2023-04-16T22:38:10.904Z,7.90
2023-04-16T22:40:37.776Z,7.88
2023-04-16T22:43:05.102Z,7.86
2023-04-16T22:45:31.972Z,7.85
2023-04-16T22:47:59.082Z,7.88
2023-04-16T22:50:26.143Z,7.87
2023-04-16T22:52:52.900Z,7.89
2023-04-16T22:55:19.750Z,7.89
2023-04-16T22:57:47.655Z,7.89
2023-04-16T23:00:18.031Z,7.87
2023-04-16T23:02:45.464Z,7.85
2023-04-16T23:05:12.563Z,7.82
2023-04-16T23:07:39.402Z,7.81
2023-04-16T23:10:08.629Z,7.82
2023-04-16T23:12:37.631Z,7.82
2023-04-16T23:15:06.852Z,7.83
2023-04-16T23:17:35.281Z,7.81
2023-04-16T23:20:02.551Z,7.80
2023-04-16T23:22:29.604Z,7.79
2023-04-16T23:24:56.554Z,7.81
2023-04-16T23:27:23.393Z,7.79
2023-04-16T23:29:50.327Z,7.77
2023-04-16T23:32:17.248Z,7.77
2023-04-16T23:34:44.153Z,7.82
2023-04-16T23:37:10.976Z,7.83
2023-04-16T23:39:37.804Z,7.81
2023-04-16T23:42:04.727Z,7.79
2023-04-16T23:44:31.753Z,7.79
2023-04-16T23:46:58.711Z,7.78
2023-04-16T23:49:25.701Z,7.78
2023-04-16T23:51:52.776Z,7.78
2023-04-16T23:54:19.709Z,7.78
2023-04-16T23:56:46.677Z,7.77
2023-04-16T23:59:14.073Z,7.78
